Live aus Altenrhein
LIVE
LSZR 300250Z AUTO VRB02KT 9000 NCD 01/M00 Q1014

People´s Info Center:

Öffnungszeiten Mo-Fr, 8-18 Uhr

 

info@peoples.ch

 
Aus Österreich:

T: +43 (0)5572 203 610

 

Aus CH / LI / DE:

T: +41 (0)71 858 51 60

 

Flughafen St. Gallen-Altenrhein: Abflug

 

Aktueller Flugstatus Abflüge
Plan Erw. nach Flug Info
10:00 10:00 Neapel PE540
planmässig
17:20 17:20 Wien PE124
planmässig

Flughafen St. Gallen-Altenrhein: Ankunft

 

Aktueller Flugstatus Ankünfte
Plan Erw. von Flug Info
16:15 16:15 Neapel PE541
planmässig
19:00 19:00 Wien PE123
planmässig
20:00 20:00 Wien PE125
planmässig